Time;durP1;ratioP1;P1;durP2;ratioP2;P2;SDS_P1;SDS_P2;PMS_P1;PMS_P2;Temp;Humidity;BMP_temperature;BMP_pressure;BME280_temperature;BME280_humidity;BME280_pressure;Samples;Min_cycle;Max_cycle;Signal;HPM_P1;HPM_P2
2022/06/09 00:00:57;;;;;;;4.43;3.88;;;;;;;;;;5068427;28;20616;-56
2022/06/09 00:03:27;;;;;;;5.10;3.35;;;;;;;;;;5060722;28;20247;-55
2022/06/09 00:05:53;;;;;;;3.75;3.47;;;;;;;;;;5061836;28;20244;-55
2022/06/09 00:08:20;;;;;;;3.60;3.30;;;;;;;;;;5066782;28;20235;-56
2022/06/09 00:10:52;;;;;;;2.92;2.72;;;;;;;;;;5064782;28;20906;-54
2022/06/09 00:13:18;;;;;;;3.35;3.08;;;;;;;;;;5066236;28;20244;-55
2022/06/09 00:15:45;;;;;;;2.67;2.42;;;;;;;;;;5067569;28;20231;-54
2022/06/09 00:18:11;;;;;;;3.38;2.75;;;;;;;;;;5064175;28;20247;-55
2022/06/09 00:20:37;;;;;;;5.55;2.35;;;;;;;;;;5059531;28;20255;-54
2022/06/09 00:23:04;;;;;;;4.53;2.40;;;;;;;;;;5064429;28;20242;-54
2022/06/09 00:25:30;;;;;;;2.35;2.22;;;;;;;;;;5067408;28;20235;-55
2022/06/09 00:27:58;;;;;;;2.83;1.95;;;;;;;;;;5064538;28;20235;-54
2022/06/09 00:30:25;;;;;;;2.40;2.22;;;;;;;;;;5065035;28;20242;-54
2022/06/09 00:32:51;;;;;;;2.22;2.03;;;;;;;;;;5055265;28;20239;-55
2022/06/09 00:35:17;;;;;;;2.97;2.78;;;;;;;;;;5067106;28;20614;-54
2022/06/09 00:37:44;;;;;;;2.45;2.28;;;;;;;;;;5065349;28;20231;-54
2022/06/09 00:40:12;;;;;;;3.13;2.42;;;;;;;;;;5060016;28;20235;-55
2022/06/09 00:42:38;;;;;;;2.33;2.13;;;;;;;;;;5064862;28;20250;-54
2022/06/09 00:45:32;;;;;;;4.20;2.38;;;;;;;;;;5061072;28;20232;-54
2022/06/09 00:48:03;;;;;;;2.42;2.33;;;;;;;;;;5019265;28;20311;-55
2022/06/09 00:50:30;;;;;;;2.70;2.50;;;;;;;;;;5053544;28;20235;-54
2022/06/09 00:52:59;;;;;;;2.42;2.28;;;;;;;;;;5065633;28;20239;-54
2022/06/09 00:55:27;;;;;;;3.67;2.60;;;;;;;;;;5063456;28;20261;-54
2022/06/09 00:57:56;;;;;;;2.85;2.65;;;;;;;;;;5064840;28;20685;-54
2022/06/09 01:00:24;;;;;;;2.40;2.20;;;;;;;;;;5058667;28;20258;-54
2022/06/09 01:02:52;;;;;;;2.20;2.10;;;;;;;;;;5051182;28;20242;-55
2022/06/09 01:05:22;;;;;;;2.83;2.63;;;;;;;;;;5061890;28;20231;-54
2022/06/09 01:07:50;;;;;;;2.67;2.47;;;;;;;;;;5055953;28;20238;-56
2022/06/09 01:10:16;;;;;;;2.80;2.60;;;;;;;;;;5062518;28;20569;-53
2022/06/09 01:12:43;;;;;;;2.83;2.63;;;;;;;;;;5057182;28;20240;-54
2022/06/09 01:15:12;;;;;;;2.40;2.30;;;;;;;;;;5064504;28;20773;-55
2022/06/09 01:17:43;;;;;;;2.60;2.50;;;;;;;;;;5060085;28;20227;-55
2022/06/09 01:20:15;;;;;;;2.70;2.50;;;;;;;;;;5064302;28;20231;-53
2022/06/09 01:22:53;;;;;;;2.90;2.60;;;;;;;;;;5063776;28;20365;-54
2022/06/09 01:25:43;;;;;;;2.60;2.40;;;;;;;;;;5062179;28;20263;-53
2022/06/09 01:28:31;;;;;;;2.20;2.10;;;;;;;;;;5056859;28;20242;-54
2022/06/09 01:31:01;;;;;;;1.95;1.85;;;;;;;;;;5037718;28;20706;-54
2022/06/09 01:33:30;;;;;;;2.00;1.90;;;;;;;;;;5054708;28;20262;-53
2022/06/09 01:36:01;;;;;;;2.20;2.10;;;;;;;;;;5058972;28;20228;-54
2022/06/09 01:38:27;;;;;;;2.20;2.08;;;;;;;;;;5050556;28;20235;-54
2022/06/09 01:40:53;;;;;;;2.17;2.05;;;;;;;;;;5056155;28;20240;-54
2022/06/09 01:43:20;;;;;;;2.00;1.90;;;;;;;;;;5049040;28;20232;-54
2022/06/09 01:45:50;;;;;;;2.00;1.90;;;;;;;;;;5063613;28;20235;-54
2022/06/09 01:48:18;;;;;;;2.33;2.22;;;;;;;;;;5060390;28;20265;-53
2022/06/09 01:50:46;;;;;;;2.15;2.05;;;;;;;;;;5065209;28;20242;-54
2022/06/09 01:53:14;;;;;;;2.45;2.25;;;;;;;;;;5058530;28;20251;-53
2022/06/09 01:55:43;;;;;;;1.48;1.40;;;;;;;;;;5054001;28;20720;-56
2022/06/09 01:58:11;;;;;;;2.28;2.15;;;;;;;;;;5057924;28;20282;-55
2022/06/09 02:00:37;;;;;;;1.92;1.83;;;;;;;;;;5060800;28;20305;-55
2022/06/09 02:03:06;;;;;;;2.45;2.03;;;;;;;;;;5064155;28;20255;-53
2022/06/09 02:05:37;;;;;;;2.50;1.92;;;;;;;;;;5055622;28;20238;-54
2022/06/09 02:08:05;;;;;;;2.10;2.00;;;;;;;;;;5058220;28;20241;-54
2022/06/09 02:10:33;;;;;;;1.92;1.77;;;;;;;;;;5063447;28;20254;-53
2022/06/09 02:13:01;;;;;;;3.67;2.00;;;;;;;;;;5058023;28;20231;-54
2022/06/09 02:15:31;;;;;;;6.20;2.40;;;;;;;;;;5062761;28;20242;-56
2022/06/09 02:17:58;;;;;;;3.10;2.05;;;;;;;;;;5057016;28;20234;-54
2022/06/09 02:20:25;;;;;;;2.90;2.50;;;;;;;;;;5063571;28;20235;-54
2022/06/09 02:22:52;;;;;;;1.67;1.58;;;;;;;;;;5064922;28;20243;-54
2022/06/09 02:25:19;;;;;;;1.65;1.55;;;;;;;;;;5063772;28;20235;-55
2022/06/09 02:27:45;;;;;;;2.63;2.42;;;;;;;;;;5065609;28;20238;-54
2022/06/09 02:30:12;;;;;;;1.75;1.65;;;;;;;;;;5060646;28;20235;-54
2022/06/09 02:32:39;;;;;;;2.17;1.73;;;;;;;;;;5058055;28;20242;-54
2022/06/09 02:35:06;;;;;;;2.03;1.77;;;;;;;;;;5059648;28;20677;-54
2022/06/09 02:37:32;;;;;;;1.88;1.77;;;;;;;;;;5060477;28;20705;-54
2022/06/09 02:40:00;;;;;;;2.55;2.25;;;;;;;;;;5054768;28;20708;-55
2022/06/09 02:42:26;;;;;;;1.88;1.70;;;;;;;;;;5060968;28;20251;-55
2022/06/09 02:44:53;;;;;;;1.88;1.77;;;;;;;;;;5063836;28;20327;-54
2022/06/09 02:47:19;;;;;;;1.85;1.75;;;;;;;;;;5063854;28;20610;-54
2022/06/09 02:49:46;;;;;;;2.97;2.00;;;;;;;;;;5055649;28;20238;-54
2022/06/09 02:52:12;;;;;;;3.42;1.90;;;;;;;;;;5055404;28;20709;-54
2022/06/09 02:54:39;;;;;;;2.22;2.13;;;;;;;;;;5062149;28;20234;-54
2022/06/09 02:57:07;;;;;;;3.35;2.28;;;;;;;;;;5054833;28;20234;-54
2022/06/09 02:59:33;;;;;;;2.33;1.75;;;;;;;;;;5063927;28;20235;-55
2022/06/09 03:02:01;;;;;;;2.47;1.90;;;;;;;;;;5060520;28;20458;-55
2022/06/09 03:04:27;;;;;;;1.92;1.83;;;;;;;;;;5059965;28;20243;-54
2022/06/09 03:06:54;;;;;;;3.70;1.80;;;;;;;;;;5062973;28;20231;-54
2022/06/09 03:09:20;;;;;;;2.03;1.75;;;;;;;;;;5064779;28;20955;-53
2022/06/09 03:11:46;;;;;;;1.73;1.63;;;;;;;;;;5063622;28;20235;-53
2022/06/09 03:14:14;;;;;;;2.83;1.55;;;;;;;;;;5062859;28;20250;-54
2022/06/09 03:16:41;;;;;;;2.83;2.20;;;;;;;;;;5059020;28;20263;-54
2022/06/09 03:19:07;;;;;;;2.42;1.90;;;;;;;;;;5068377;28;20326;-54
2022/06/09 03:21:33;;;;;;;1.88;1.70;;;;;;;;;;5058171;28;20312;-53
2022/06/09 03:24:00;;;;;;;2.10;1.80;;;;;;;;;;5067887;28;20717;-55
2022/06/09 03:26:26;;;;;;;1.92;1.83;;;;;;;;;;5068550;28;20254;-54
2022/06/09 03:28:53;;;;;;;2.45;1.52;;;;;;;;;;5058904;28;20239;-54
2022/06/09 03:31:20;;;;;;;1.73;1.63;;;;;;;;;;5068388;28;20826;-54
2022/06/09 03:33:50;;;;;;;2.22;1.73;;;;;;;;;;5066303;28;20236;-54
2022/06/09 03:36:17;;;;;;;1.77;1.67;;;;;;;;;;5064029;28;20713;-55
2022/06/09 03:38:43;;;;;;;2.58;1.80;;;;;;;;;;5065890;28;20615;-55
2022/06/09 03:41:10;;;;;;;3.28;1.98;;;;;;;;;;5060450;28;20269;-54
2022/06/09 03:43:37;;;;;;;1.38;1.27;;;;;;;;;;5067804;28;20242;-54
2022/06/09 03:46:03;;;;;;;2.88;1.30;;;;;;;;;;5060859;28;20238;-54
2022/06/09 03:48:31;;;;;;;1.73;1.63;;;;;;;;;;5057314;28;20890;-55
2022/06/09 03:50:57;;;;;;;2.13;1.48;;;;;;;;;;5067334;28;20278;-54
2022/06/09 03:53:24;;;;;;;3.60;1.70;;;;;;;;;;5060996;28;20240;-54
2022/06/09 03:55:50;;;;;;;3.33;2.13;;;;;;;;;;5058549;28;20731;-55
2022/06/09 03:58:16;;;;;;;1.77;1.40;;;;;;;;;;5066066;28;20239;-55
2022/06/09 04:00:43;;;;;;;1.77;1.67;;;;;;;;;;5065158;28;20278;-54
2022/06/09 04:03:09;;;;;;;2.65;1.42;;;;;;;;;;5063005;28;20293;-54
2022/06/09 04:05:37;;;;;;;2.08;1.60;;;;;;;;;;5064480;28;20243;-54
2022/06/09 04:08:04;;;;;;;1.63;1.52;;;;;;;;;;5067400;28;20258;-54
2022/06/09 04:10:32;;;;;;;2.63;1.63;;;;;;;;;;5063155;28;20231;-53
2022/06/09 04:12:59;;;;;;;1.88;1.70;;;;;;;;;;5064068;28;20251;-54
2022/06/09 04:15:25;;;;;;;3.78;1.70;;;;;;;;;;5065872;28;20246;-55
2022/06/09 04:17:52;;;;;;;2.05;1.60;;;;;;;;;;5061837;28;20326;-54
2022/06/09 04:20:22;;;;;;;2.17;1.65;;;;;;;;;;5064965;28;20242;-55
2022/06/09 04:22:50;;;;;;;4.03;1.73;;;;;;;;;;5067538;28;20235;-54
2022/06/09 04:25:17;;;;;;;1.63;1.35;;;;;;;;;;5066623;28;20246;-54
2022/06/09 04:27:43;;;;;;;2.00;1.50;;;;;;;;;;5058732;28;20227;-55
2022/06/09 04:30:11;;;;;;;2.15;1.85;;;;;;;;;;5066571;28;20227;-54
2022/06/09 04:32:37;;;;;;;2.60;1.80;;;;;;;;;;5058919;28;20239;-55
2022/06/09 04:35:04;;;;;;;2.35;1.58;;;;;;;;;;5067383;28;20669;-55
2022/06/09 04:40:13;;;;;;;3.50;1.95;;;;;;;;;;5059007;28;20697;-55
2022/06/09 04:42:40;;;;;;;3.20;1.63;;;;;;;;;;5056086;28;20260;-55
2022/06/09 04:45:07;;;;;;;2.28;1.73;;;;;;;;;;5063888;28;20235;-54
2022/06/09 04:47:33;;;;;;;1.60;1.50;;;;;;;;;;5063384;28;20223;-54
2022/06/09 04:49:59;;;;;;;1.83;1.60;;;;;;;;;;5058153;28;20729;-55
2022/06/09 04:52:26;;;;;;;3.28;2.20;;;;;;;;;;5063666;28;20792;-55
2022/06/09 04:54:52;;;;;;;1.55;1.45;;;;;;;;;;5052646;28;20682;-55
2022/06/09 04:57:20;;;;;;;6.07;1.80;;;;;;;;;;5054169;28;20231;-54
2022/06/09 04:59:46;;;;;;;2.08;1.67;;;;;;;;;;5063711;28;20231;-54
2022/06/09 05:02:13;;;;;;;1.63;1.52;;;;;;;;;;5064775;28;20241;-54
2022/06/09 05:04:39;;;;;;;1.65;1.40;;;;;;;;;;5066787;28;20906;-54
2022/06/09 05:07:05;;;;;;;1.90;1.30;;;;;;;;;;5056232;28;20267;-54
2022/06/09 05:09:32;;;;;;;2.38;1.30;;;;;;;;;;5048213;28;20249;-54
2022/06/09 05:11:58;;;;;;;2.17;1.33;;;;;;;;;;5062371;28;20606;-56
2022/06/09 05:14:26;;;;;;;4.25;1.98;;;;;;;;;;5062774;28;20521;-56
2022/06/09 05:16:52;;;;;;;2.13;1.92;;;;;;;;;;5064819;28;20346;-55
2022/06/09 05:19:19;;;;;;;2.80;1.88;;;;;;;;;;5060684;28;20608;-54
2022/06/09 05:21:45;;;;;;;5.55;2.28;;;;;;;;;;5063071;28;20242;-55
2022/06/09 05:24:12;;;;;;;1.70;1.60;;;;;;;;;;5058730;28;20247;-55
2022/06/09 05:26:39;;;;;;;1.85;1.70;;;;;;;;;;5057044;28;20736;-54
2022/06/09 05:29:06;;;;;;;1.75;1.65;;;;;;;;;;5061591;28;20259;-54
2022/06/09 05:31:34;;;;;;;2.00;1.65;;;;;;;;;;5059757;28;20626;-55
2022/06/09 05:34:00;;;;;;;2.85;1.73;;;;;;;;;;5057063;28;20228;-55
2022/06/09 05:36:26;;;;;;;2.08;1.50;;;;;;;;;;5062258;28;20235;-55
2022/06/09 05:47:06;;;;;;;2.67;1.58;;;;;;;;;;5057600;28;20305;-54
2022/06/09 05:49:32;;;;;;;2.60;1.80;;;;;;;;;;5065303;28;20599;-54
2022/06/09 05:51:59;;;;;;;3.28;1.90;;;;;;;;;;5064483;28;20278;-54
2022/06/09 05:54:25;;;;;;;4.43;1.98;;;;;;;;;;5065778;28;20259;-54
2022/06/09 05:56:51;;;;;;;1.92;1.73;;;;;;;;;;5065327;28;20231;-54
2022/06/09 05:59:18;;;;;;;2.70;1.77;;;;;;;;;;5065283;28;20246;-54
2022/06/09 06:01:45;;;;;;;3.08;1.92;;;;;;;;;;5065068;28;20347;-54
2022/06/09 06:04:13;;;;;;;3.35;1.42;;;;;;;;;;5064901;28;20346;-54
2022/06/09 06:06:39;;;;;;;2.38;1.60;;;;;;;;;;5062731;28;20900;-54
2022/06/09 06:09:06;;;;;;;2.88;1.33;;;;;;;;;;5058838;28;20314;-54
2022/06/09 06:11:33;;;;;;;1.17;1.00;;;;;;;;;;5062193;28;20662;-54
2022/06/09 06:14:00;;;;;;;1.83;1.48;;;;;;;;;;5065005;28;20296;-54
2022/06/09 06:16:27;;;;;;;2.67;1.33;;;;;;;;;;5057036;28;20289;-55
2022/06/09 06:18:54;;;;;;;1.98;1.63;;;;;;;;;;5049087;28;20228;-54
2022/06/09 06:21:22;;;;;;;1.48;1.10;;;;;;;;;;5062903;28;20738;-54
2022/06/09 06:23:48;;;;;;;2.38;1.20;;;;;;;;;;5052279;28;20623;-54
2022/06/09 06:26:15;;;;;;;1.58;1.48;;;;;;;;;;5057062;28;20242;-54
2022/06/09 06:28:41;;;;;;;1.90;1.40;;;;;;;;;;5055046;28;20236;-55
2022/06/09 06:31:08;;;;;;;1.77;1.30;;;;;;;;;;5065788;28;20609;-54
2022/06/09 06:33:34;;;;;;;1.90;1.42;;;;;;;;;;5055519;28;20246;-54
2022/06/09 06:36:00;;;;;;;1.60;1.42;;;;;;;;;;5058732;28;20239;-55
2022/06/09 06:38:28;;;;;;;2.20;1.10;;;;;;;;;;5057070;28;20248;-55
2022/06/09 06:40:55;;;;;;;2.53;1.63;;;;;;;;;;5059688;28;20237;-55
2022/06/09 06:43:22;;;;;;;1.63;1.42;;;;;;;;;;5057700;28;20262;-56
2022/06/09 06:45:49;;;;;;;2.45;1.27;;;;;;;;;;5064571;28;20495;-54
2022/06/09 06:48:15;;;;;;;1.58;1.42;;;;;;;;;;5069126;28;20249;-55
2022/06/09 06:50:41;;;;;;;1.60;1.25;;;;;;;;;;5066611;28;20234;-55
2022/06/09 06:53:12;;;;;;;2.92;1.30;;;;;;;;;;5060954;28;20318;-56
2022/06/09 06:55:40;;;;;;;1.65;1.35;;;;;;;;;;5062814;28;20705;-54
2022/06/09 06:58:06;;;;;;;2.65;1.42;;;;;;;;;;5064032;28;20233;-54
2022/06/09 07:00:36;;;;;;;2.33;1.80;;;;;;;;;;5064171;28;20231;-56
2022/06/09 07:03:03;;;;;;;2.28;1.13;;;;;;;;;;5060166;28;20231;-54
2022/06/09 07:05:29;;;;;;;2.33;1.70;;;;;;;;;;5062721;28;20329;-55
2022/06/09 07:07:56;;;;;;;2.53;1.70;;;;;;;;;;5063412;28;20255;-56
2022/06/09 07:10:23;;;;;;;2.72;1.80;;;;;;;;;;5067056;28;20235;-57
2022/06/09 07:12:51;;;;;;;2.65;2.00;;;;;;;;;;5066423;28;20246;-55
2022/06/09 07:15:18;;;;;;;5.68;2.00;;;;;;;;;;5063380;28;20241;-55
2022/06/09 07:17:44;;;;;;;2.17;1.80;;;;;;;;;;5064656;28;20234;-55
2022/06/09 07:20:12;;;;;;;2.45;1.90;;;;;;;;;;5054670;28;20606;-55
2022/06/09 07:22:38;;;;;;;3.72;1.80;;;;;;;;;;5068256;28;20318;-55
2022/06/09 07:25:05;;;;;;;5.95;2.40;;;;;;;;;;5063746;28;20242;-54
2022/06/09 07:27:32;;;;;;;1.98;1.40;;;;;;;;;;5067828;28;20235;-55
2022/06/09 07:30:00;;;;;;;4.43;1.88;;;;;;;;;;5066364;28;20709;-54
2022/06/09 07:32:28;;;;;;;2.83;1.83;;;;;;;;;;5061994;28;20239;-55
2022/06/09 07:34:54;;;;;;;4.28;1.92;;;;;;;;;;5060601;28;20234;-55
2022/06/09 07:37:20;;;;;;;2.47;2.28;;;;;;;;;;5062991;28;20239;-54
2022/06/09 07:39:47;;;;;;;3.95;2.40;;;;;;;;;;5062758;28;20620;-54
2022/06/09 07:42:13;;;;;;;3.05;2.75;;;;;;;;;;5065915;28;20326;-55
2022/06/09 07:44:40;;;;;;;4.03;2.20;;;;;;;;;;5061292;28;20242;-55
2022/06/09 07:47:08;;;;;;;2.72;1.90;;;;;;;;;;5068558;28;20721;-55
2022/06/09 07:49:35;;;;;;;2.00;1.80;;;;;;;;;;5065239;28;20235;-55
2022/06/09 07:52:02;;;;;;;2.90;2.10;;;;;;;;;;5063903;28;20247;-55
2022/06/09 07:54:28;;;;;;;3.90;2.17;;;;;;;;;;5066428;28;20230;-55
2022/06/09 07:56:54;;;;;;;2.63;2.25;;;;;;;;;;5064974;28;20270;-55
2022/06/09 07:59:21;;;;;;;1.92;1.50;;;;;;;;;;5067123;28;20231;-55
2022/06/09 08:01:47;;;;;;;2.33;1.60;;;;;;;;;;5066484;28;20234;-55
2022/06/09 08:04:16;;;;;;;3.58;2.33;;;;;;;;;;5061078;28;20236;-55
2022/06/09 08:06:43;;;;;;;3.15;1.98;;;;;;;;;;5062621;28;20713;-54
2022/06/09 08:09:10;;;;;;;2.25;2.05;;;;;;;;;;5060075;28;20228;-55
2022/06/09 08:11:37;;;;;;;1.63;1.52;;;;;;;;;;5065577;28;20237;-54
2022/06/09 08:14:03;;;;;;;3.47;1.90;;;;;;;;;;5066261;28;20241;-55
2022/06/09 08:16:30;;;;;;;2.67;1.80;;;;;;;;;;5066565;28;20247;-54
2022/06/09 08:18:57;;;;;;;5.68;1.58;;;;;;;;;;5066598;28;20734;-54
2022/06/09 08:21:26;;;;;;;5.28;2.15;;;;;;;;;;5063834;28;20603;-56
2022/06/09 08:23:52;;;;;;;8.30;2.95;;;;;;;;;;5064587;28;20235;-54
2022/06/09 08:26:19;;;;;;;2.13;1.80;;;;;;;;;;5066200;28;20242;-53
2022/06/09 08:28:45;;;;;;;3.10;1.88;;;;;;;;;;5051550;28;20235;-55
2022/06/09 08:31:12;;;;;;;1.73;1.63;;;;;;;;;;5057785;28;20585;-55
2022/06/09 08:33:39;;;;;;;3.20;1.95;;;;;;;;;;5064257;28;20239;-55
2022/06/09 08:36:06;;;;;;;5.53;2.15;;;;;;;;;;5061552;28;20685;-59
2022/06/09 08:38:34;;;;;;;3.22;2.35;;;;;;;;;;5062571;28;20317;-54
2022/06/09 08:41:02;;;;;;;2.35;2.15;;;;;;;;;;5054493;28;20239;-54
2022/06/09 08:43:34;;;;;;;3.42;1.80;;;;;;;;;;5063581;28;20321;-54
2022/06/09 08:46:08;;;;;;;3.17;2.40;;;;;;;;;;5059395;28;20368;-54
2022/06/09 08:48:38;;;;;;;3.90;2.10;;;;;;;;;;5062729;28;20231;-53
2022/06/09 08:51:07;;;;;;;2.22;2.05;;;;;;;;;;5063823;28;20243;-55
2022/06/09 08:53:37;;;;;;;2.50;2.10;;;;;;;;;;5061419;28;20231;-55
2022/06/09 08:56:06;;;;;;;2.00;1.80;;;;;;;;;;5063433;28;20231;-55
2022/06/09 08:58:35;;;;;;;2.30;2.15;;;;;;;;;;5060988;28;20223;-55
2022/06/09 09:01:04;;;;;;;2.17;1.98;;;;;;;;;;5063587;28;20235;-55
2022/06/09 09:03:32;;;;;;;2.30;1.65;;;;;;;;;;5060865;28;20782;-55
2022/06/09 09:06:00;;;;;;;3.63;2.25;;;;;;;;;;5060176;28;20250;-55
2022/06/09 09:08:27;;;;;;;3.00;2.40;;;;;;;;;;5056764;28;20235;-54
2022/06/09 09:11:00;;;;;;;2.63;2.42;;;;;;;;;;5061642;28;20265;-54
2022/06/09 09:13:38;;;;;;;2.15;1.85;;;;;;;;;;5060904;28;20235;-55
2022/06/09 09:16:09;;;;;;;2.50;2.28;;;;;;;;;;5059280;28;20309;-54
2022/06/09 09:18:44;;;;;;;6.63;2.22;;;;;;;;;;5062298;28;20313;-54
2022/06/09 09:21:19;;;;;;;2.92;2.08;;;;;;;;;;5061804;28;20238;-54
2022/06/09 09:23:52;;;;;;;2.20;2.03;;;;;;;;;;5055154;28;20242;-54
2022/06/09 09:26:25;;;;;;;2.92;2.05;;;;;;;;;;5064047;28;20239;-55
2022/06/09 09:28:55;;;;;;;1.70;1.60;;;;;;;;;;5064207;28;20235;-55
2022/06/09 09:31:30;;;;;;;2.13;2.00;;;;;;;;;;5062869;28;20266;-55
2022/06/09 09:33:57;;;;;;;1.83;1.73;;;;;;;;;;5062486;28;20239;-53
2022/06/09 09:36:24;;;;;;;2.17;2.08;;;;;;;;;;5063645;28;20239;-54
2022/06/09 09:38:53;;;;;;;2.00;1.85;;;;;;;;;;5061574;28;20302;-54
2022/06/09 09:41:33;;;;;;;3.90;2.10;;;;;;;;;;5064805;28;20247;-54
2022/06/09 09:44:00;;;;;;;3.63;2.17;;;;;;;;;;5062547;28;20254;-54
2022/06/09 09:46:29;;;;;;;5.28;2.65;;;;;;;;;;5060485;28;20265;-55
2022/06/09 09:48:57;;;;;;;3.80;2.70;;;;;;;;;;5064507;28;20277;-55
2022/06/09 09:51:32;;;;;;;2.47;2.28;;;;;;;;;;5063323;28;20231;-56
2022/06/09 09:53:58;;;;;;;2.30;2.10;;;;;;;;;;5057533;28;20227;-54
2022/06/09 09:56:34;;;;;;;2.65;1.80;;;;;;;;;;5059326;28;20230;-54
2022/06/09 09:59:04;;;;;;;2.50;2.30;;;;;;;;;;5052675;28;20275;-54
2022/06/09 10:01:34;;;;;;;2.80;2.50;;;;;;;;;;5058024;28;20308;-54
2022/06/09 10:09:38;;;;;;;2.55;2.35;;;;;;;;;;5061886;28;20291;-54
2022/06/09 10:12:07;;;;;;;2.53;2.33;;;;;;;;;;5058707;28;20231;-54
2022/06/09 10:14:42;;;;;;;3.70;3.08;;;;;;;;;;5059474;28;20314;-54
2022/06/09 10:17:20;;;;;;;2.85;2.63;;;;;;;;;;5062231;28;20226;-55
2022/06/09 10:19:49;;;;;;;3.83;3.13;;;;;;;;;;5060145;28;20223;-57
2022/06/09 10:22:18;;;;;;;2.83;2.63;;;;;;;;;;5060469;28;20248;-55
2022/06/09 10:24:47;;;;;;;2.63;2.42;;;;;;;;;;5056619;28;20227;-55
2022/06/09 10:27:17;;;;;;;3.45;2.55;;;;;;;;;;5062733;28;20239;-54
2022/06/09 10:29:47;;;;;;;2.78;2.55;;;;;;;;;;5056760;28;20326;-55
2022/06/09 10:32:17;;;;;;;3.30;2.47;;;;;;;;;;5061399;28;20247;-53
2022/06/09 10:34:48;;;;;;;2.38;2.17;;;;;;;;;;5061287;28;20732;-55
2022/06/09 10:37:18;;;;;;;2.47;2.30;;;;;;;;;;5054693;28;20764;-55
2022/06/09 10:39:48;;;;;;;4.70;2.75;;;;;;;;;;5061489;28;20235;-54
2022/06/09 10:42:20;;;;;;;3.65;3.35;;;;;;;;;;5061807;28;20246;-56
2022/06/09 10:44:50;;;;;;;5.13;2.70;;;;;;;;;;5054615;28;20247;-55
2022/06/09 10:55:49;;;;;;;2.92;2.63;;;;;;;;;;5060020;28;20284;-54
2022/06/09 10:58:18;;;;;;;3.42;3.13;;;;;;;;;;5054874;28;20614;-54
2022/06/09 11:00:47;;;;;;;2.47;2.25;;;;;;;;;;5059437;28;20235;-55
2022/06/09 11:03:16;;;;;;;3.30;3.00;;;;;;;;;;5053544;28;20732;-54
2022/06/09 11:05:53;;;;;;;4.38;4.03;;;;;;;;;;5056206;28;20300;-55
2022/06/09 11:08:23;;;;;;;3.42;2.97;;;;;;;;;;5059499;28;20273;-55
2022/06/09 11:10:55;;;;;;;5.75;3.15;;;;;;;;;;5057125;28;20228;-55
2022/06/09 11:13:29;;;;;;;4.95;3.50;;;;;;;;;;5056963;28;20259;-57
2022/06/09 11:16:00;;;;;;;4.82;2.97;;;;;;;;;;5060204;28;20231;-57
2022/06/09 11:18:31;;;;;;;2.80;2.45;;;;;;;;;;5063188;28;20239;-56
2022/06/09 11:21:04;;;;;;;2.90;2.60;;;;;;;;;;5063029;28;20489;-56
2022/06/09 11:23:37;;;;;;;3.50;2.88;;;;;;;;;;5054916;28;20242;-54
2022/06/09 11:26:11;;;;;;;2.13;2.03;;;;;;;;;;5055164;28;20247;-54
2022/06/09 11:28:44;;;;;;;3.42;2.75;;;;;;;;;;5058520;28;20326;-55
2022/06/09 11:31:24;;;;;;;4.15;3.10;;;;;;;;;;5063915;28;20670;-55
2022/06/09 11:34:03;;;;;;;3.45;3.15;;;;;;;;;;5064444;28;20279;-55
2022/06/09 11:36:33;;;;;;;4.05;3.00;;;;;;;;;;5066252;28;20346;-56
2022/06/09 11:39:06;;;;;;;5.32;3.15;;;;;;;;;;5063043;28;20246;-54
2022/06/09 11:41:39;;;;;;;8.90;3.20;;;;;;;;;;5061940;28;20243;-55
2022/06/09 11:44:14;;;;;;;7.50;3.33;;;;;;;;;;5061529;28;20237;-54
2022/06/09 11:46:43;;;;;;;7.13;2.65;;;;;;;;;;5064686;28;20643;-54
2022/06/09 11:49:11;;;;;;;3.97;3.60;;;;;;;;;;5065492;28;20255;-54
2022/06/09 11:51:38;;;;;;;3.10;2.70;;;;;;;;;;5065143;28;20233;-55
2022/06/09 11:54:05;;;;;;;5.32;3.20;;;;;;;;;;5066624;28;20231;-55
2022/06/09 11:56:34;;;;;;;4.43;3.03;;;;;;;;;;5064284;28;20246;-59
2022/06/09 11:59:01;;;;;;;5.88;3.63;;;;;;;;;;5062888;28;20251;-55
2022/06/09 12:01:45;;;;;;;4.03;3.65;;;;;;;;;;5065585;28;20235;-55
2022/06/09 12:04:21;;;;;;;4.22;3.50;;;;;;;;;;5063667;28;20238;-53
2022/06/09 12:07:06;;;;;;;4.70;3.55;;;;;;;;;;5066455;28;20322;-54
2022/06/09 12:09:37;;;;;;;3.95;3.05;;;;;;;;;;5065498;28;20234;-55
2022/06/09 12:12:04;;;;;;;3.88;3.30;;;;;;;;;;5063184;28;20657;-55
2022/06/09 12:14:32;;;;;;;4.55;4.00;;;;;;;;;;5059505;28;20236;-54
2022/06/09 12:17:08;;;;;;;5.22;3.53;;;;;;;;;;5061539;28;20238;-54
2022/06/09 12:19:36;;;;;;;5.80;3.63;;;;;;;;;;5061739;28;20231;-54
2022/06/09 12:22:17;;;;;;;4.22;3.45;;;;;;;;;;5060406;28;20234;-59
2022/06/09 12:25:00;;;;;;;4.35;3.53;;;;;;;;;;5053154;28;20235;-54
2022/06/09 12:27:42;;;;;;;4.20;3.75;;;;;;;;;;5063458;28;20359;-54
2022/06/09 12:30:27;;;;;;;4.05;3.75;;;;;;;;;;5062912;28;20227;-54
2022/06/09 12:33:15;;;;;;;4.63;3.90;;;;;;;;;;5061654;28;20233;-54
2022/06/09 12:35:47;;;;;;;4.95;3.95;;;;;;;;;;5065277;28;20227;-54
2022/06/09 12:38:20;;;;;;;4.43;2.75;;;;;;;;;;5057062;28;20663;-55
2022/06/09 12:40:49;;;;;;;4.03;3.47;;;;;;;;;;5061739;28;20231;-54
2022/06/09 12:43:22;;;;;;;5.28;3.83;;;;;;;;;;5062462;28;20231;-56
2022/06/09 12:45:59;;;;;;;4.30;3.90;;;;;;;;;;5062911;28;20238;-54
2022/06/09 12:48:28;;;;;;;3.70;3.40;;;;;;;;;;5062236;28;20241;-54
2022/06/09 12:50:55;;;;;;;4.05;3.67;;;;;;;;;;5061052;28;20231;-54
2022/06/09 12:53:23;;;;;;;3.75;3.38;;;;;;;;;;5065782;28;20235;-54
2022/06/09 12:55:52;;;;;;;4.03;3.72;;;;;;;;;;5063606;28;20234;-55
2022/06/09 12:58:20;;;;;;;3.72;3.42;;;;;;;;;;5061397;28;20277;-55
2022/06/09 13:00:49;;;;;;;4.07;3.78;;;;;;;;;;5057783;28;20227;-54
2022/06/09 13:03:17;;;;;;;5.40;4.00;;;;;;;;;;5055313;28;20246;-54
2022/06/09 13:05:44;;;;;;;5.93;4.43;;;;;;;;;;5066529;28;20242;-54
2022/06/09 13:08:14;;;;;;;8.45;5.28;;;;;;;;;;5064302;28;20247;-54
2022/06/09 13:10:43;;;;;;;5.55;5.05;;;;;;;;;;5063237;28;20223;-54
2022/06/09 13:13:15;;;;;;;5.38;4.65;;;;;;;;;;5061651;28;20288;-54
2022/06/09 13:15:45;;;;;;;6.00;4.82;;;;;;;;;;5064746;28;20819;-54
2022/06/09 13:18:16;;;;;;;6.40;5.28;;;;;;;;;;5062925;28;20659;-54
2022/06/09 13:20:49;;;;;;;5.70;4.32;;;;;;;;;;5060753;28;20223;-53
2022/06/09 13:23:15;;;;;;;5.25;4.55;;;;;;;;;;5062375;28;20709;-54
2022/06/09 13:25:42;;;;;;;4.70;4.30;;;;;;;;;;5060559;28;20239;-53
2022/06/09 13:28:16;;;;;;;6.45;4.88;;;;;;;;;;5057791;28;20231;-55
2022/06/09 13:30:48;;;;;;;8.80;5.25;;;;;;;;;;5062491;28;20357;-55
2022/06/09 13:33:29;;;;;;;4.80;4.40;;;;;;;;;;5062497;28;20245;-55
2022/06/09 13:36:09;;;;;;;6.07;4.25;;;;;;;;;;5056587;28;20235;-54
2022/06/09 13:38:36;;;;;;;4.07;3.78;;;;;;;;;;5062982;28;20234;-54
2022/06/09 13:41:09;;;;;;;6.53;5.93;;;;;;;;;;5065770;28;20235;-54
2022/06/09 13:43:40;;;;;;;5.10;4.60;;;;;;;;;;5053944;28;20238;-54
2022/06/09 13:46:13;;;;;;;6.50;4.82;;;;;;;;;;5053405;28;20669;-53
2022/06/09 13:48:46;;;;;;;4.88;3.88;;;;;;;;;;5065492;28;20235;-53
2022/06/09 13:51:22;;;;;;;4.47;4.05;;;;;;;;;;5063675;28;20284;-55
2022/06/09 13:53:51;;;;;;;4.75;4.35;;;;;;;;;;5062300;28;20238;-55
2022/06/09 13:56:17;;;;;;;5.05;4.63;;;;;;;;;;5059862;28;20694;-54
2022/06/09 13:58:43;;;;;;;4.85;4.45;;;;;;;;;;5065370;28;20235;-53
2022/06/09 14:01:10;;;;;;;7.85;5.03;;;;;;;;;;5060431;28;20239;-54
2022/06/09 14:03:38;;;;;;;5.25;4.75;;;;;;;;;;5054617;28;20235;-54
2022/06/09 14:06:06;;;;;;;5.50;4.32;;;;;;;;;;5046338;28;20238;-54
2022/06/09 14:08:38;;;;;;;6.28;5.70;;;;;;;;;;5063225;28;20235;-53
2022/06/09 14:11:05;;;;;;;5.57;5.05;;;;;;;;;;5062447;28;20671;-54
2022/06/09 14:13:31;;;;;;;5.95;5.47;;;;;;;;;;5059219;28;20235;-53
2022/06/09 14:15:59;;;;;;;6.65;4.40;;;;;;;;;;5064334;28;20308;-55
2022/06/09 14:18:27;;;;;;;5.75;5.25;;;;;;;;;;5060431;28;20247;-54
2022/06/09 14:21:03;;;;;;;5.70;5.28;;;;;;;;;;5060220;28;20288;-54
2022/06/09 14:23:31;;;;;;;5.75;5.00;;;;;;;;;;5064569;28;20239;-56
2022/06/09 14:26:00;;;;;;;4.85;4.32;;;;;;;;;;5065170;28;20363;-55
2022/06/09 14:28:27;;;;;;;5.32;4.28;;;;;;;;;;5060651;28;20714;-55
2022/06/09 14:30:54;;;;;;;6.43;5.40;;;;;;;;;;5064048;28;20321;-54
2022/06/09 14:33:20;;;;;;;4.80;4.40;;;;;;;;;;5064999;28;20322;-54
2022/06/09 14:35:47;;;;;;;6.07;5.47;;;;;;;;;;5064108;28;20231;-54
2022/06/09 14:38:14;;;;;;;5.78;5.28;;;;;;;;;;5064806;28;20234;-55
2022/06/09 14:40:42;;;;;;;5.07;4.75;;;;;;;;;;5065776;28;20728;-54
2022/06/09 14:43:10;;;;;;;5.95;5.40;;;;;;;;;;5061589;28;20322;-54
2022/06/09 14:45:37;;;;;;;5.65;4.95;;;;;;;;;;5057128;28;20834;-54
2022/06/09 14:48:04;;;;;;;8.80;5.05;;;;;;;;;;5060181;28;20310;-55
2022/06/09 14:50:30;;;;;;;5.68;4.82;;;;;;;;;;5062394;28;20300;-56
2022/06/09 14:52:57;;;;;;;5.47;4.97;;;;;;;;;;5065018;28;20290;-53
2022/06/09 14:55:23;;;;;;;8.10;4.43;;;;;;;;;;5055706;28;20231;-54
2022/06/09 14:57:50;;;;;;;6.63;5.93;;;;;;;;;;5061361;28;20233;-54
2022/06/09 15:00:21;;;;;;;6.30;5.80;;;;;;;;;;5062582;28;20255;-56
2022/06/09 15:02:48;;;;;;;6.28;5.78;;;;;;;;;;5061985;28;20239;-55
2022/06/09 15:05:16;;;;;;;7.95;5.88;;;;;;;;;;5051152;28;20228;-55
2022/06/09 15:07:43;;;;;;;6.22;5.30;;;;;;;;;;5058532;28;20540;-54
2022/06/09 15:10:09;;;;;;;6.35;5.85;;;;;;;;;;5063925;28;20705;-54
2022/06/09 15:12:36;;;;;;;8.18;7.40;;;;;;;;;;5065126;28;20657;-54
2022/06/09 15:15:02;;;;;;;9.43;6.03;;;;;;;;;;5062551;28;20242;-54
2022/06/09 15:17:30;;;;;;;6.75;6.18;;;;;;;;;;5064466;28;20330;-54